Nearby METAR Reports

 

EDNY - Friedrichshafen, Germany
Distance from station: ONO 32km
aktuell: 27.08.2016 18:20
klar
klar
 Wind von SSW
Wind: SSW 9 km/h
Temperatur: 30°C
Heat Index: 31°C
Taupunkt: 18°C
Luftfeuchte: 49%
Luftdruck: 1017 hPa
Zusammenfassung: klar
Visibility: greater than 10 km
2016/08/27 16:20 EDNY 271620Z 20005KT CAVOK 30/18 Q1017
LSZR - Rheineck/Altenrh, Switzerland
Distance from station: OSO 37km
aktuell: 27.08.2016 18:20
klar
klar
 Wind von W
Wind: W 6 km/h
Temperatur: 29°C
Heat Index: 30°C
Taupunkt: 19°C
Luftfeuchte: 55%
Luftdruck: 1017 hPa
Zusammenfassung: klar
Visibility: greater than 10 km
2016/08/27 16:20 LSZR 271620Z 28003KT CAVOK 29/19 Q1017 NOSIG RMK L
LSMD - Dubendorf, Switzerland
Distance from station: SW 40km
aktuell: 26.08.2016 19:50
NOT Current
klar
klar
 Wind von SO
Wind: SO 4 km/h
Temperatur: 28°C
Heat Index: 29°C
Taupunkt: 18°C
Luftfeuchte: 55%
Luftdruck: 1018 hPa
Clouds: klar
Visibility: 16 miles
2016/08/26 17:50 LSMD 261750Z AUTO 13002KT 9999NDV NCD 28/18 Q1018 RMK
 
LSZH - Zurich-Kloten (a, Switzerland
Distance from station: WSW 44km
aktuell: 27.08.2016 18:20
klar
klar
 Wind von ONO
Wind: ONO 7 km/h
Temperatur: 31°C
Heat Index: 31°C
Taupunkt: 16°C
Luftfeuchte: 40%
Luftdruck: 1017 hPa
Zusammenfassung: klar
Visibility: greater than 10 km
2016/08/27 16:20 LSZH 271620Z 06004KT 030V090 CAVOK 31/16 Q1017 NOSIG
LOIH - Hohenems-Dornbir, Austria
Distance from station: OSO 51km
aktuell: 25.08.2016 11:00
NOT Current
klar
klar
 Wind von calm
Wind: Windstill
Temperatur: 24°C
Taupunkt: 18°C
Luftfeuchte: 69%
Luftdruck: 1020 hPa
Clouds: klar
2016/08/25 09:00 LOIH 250900Z 00000KT 35KM SKC 24/18 Q1020 RMK SKC
LSME - Emmen, Switzerland
Distance from station: SW 82km
aktuell: 27.08.2016 17:50
klar
klar
 Wind von varies
Wind: varies 4 km/h
Temperatur: 30°C
Heat Index: 29°C
Taupunkt: 15°C
Luftfeuchte: 40%
Luftdruck: 1018 hPa
Clouds: klar
Visibility: 16 miles
2016/08/27 15:50 LSME 271550Z AUTO VRB02KT 9999NDV NCD 30/15 Q1018 RMK
 
LSZC - Buochs, Switzerland
Distance from station: SW 89km
aktuell: 27.08.2016 18:20
klar
klar
 Wind von varies
Wind: varies 2 km/h
Temperatur: 29°C
Heat Index: 31°C
Taupunkt: 21°C
Luftfeuchte: 62%
Luftdruck: 1018 hPa
Zusammenfassung: klar
Visibility: greater than 10 km
2016/08/27 16:20 LSZC 271620Z AUTO VRB01KT CAVOK 29/21 Q1018
ETHL - Laupheim (ger-Ar, Germany
Distance from station: NO 92km
aktuell: 27.08.2016 18:20

 Wind von ONO
Wind: ONO 11 km/h
Temperatur: 29°C
Heat Index: 29°C
Taupunkt: 15°C
Luftfeuchte: 43%
Luftdruck: 1018 hPa
Visibility: 8 km
2016/08/27 16:20 ETHL 271620Z AUTO 07006KT 8000 // ////// 29/15 Q1018 ///
EDJA - Memmingen Allgau, Germany
Distance from station: ONO 95km
aktuell: 27.08.2016 18:20
klar
klar
 Wind von varies
Wind: varies 6 km/h
Temperatur: 28°C
Heat Index: 28°C
Taupunkt: 15°C
Luftfeuchte: 45%
Luftdruck: 1019 hPa
Zusammenfassung: klar
Visibility: greater than 10 km
2016/08/27 16:20 EDJA 271620Z VRB03KT CAVOK 28/15 Q1019
 
LSMA - Alpnach, Switzerland
Distance from station: SW 95km
aktuell: 27.08.2016 17:50
klar
klar
 Wind von NNW
Wind: NNW 6 km/h
Temperatur: 29°C
Heat Index: 29°C
Taupunkt: 17°C
Luftfeuchte: 48%
Luftdruck: 1018 hPa
Clouds: klar
Visibility: 16 miles
2016/08/27 15:50 LSMA 271550Z AUTO 33003KT 300V360 9999NDV NCD 29/17 Q1018 RMK